createdAt,value
2022-10-19T00:00:47.525Z,6.70
2022-10-19T00:03:18.263Z,7.10
2022-10-19T00:05:47.414Z,8.90
2022-10-19T00:08:15.428Z,8.13
2022-10-19T00:10:42.059Z,7.07
2022-10-19T00:13:08.647Z,9.13
2022-10-19T00:15:39.914Z,8.93
2022-10-19T00:18:10.040Z,7.18
2022-10-19T00:20:37.082Z,7.50
2022-10-19T00:23:04.118Z,8.33
2022-10-19T00:25:30.833Z,6.00
2022-10-19T00:27:57.436Z,9.00
2022-10-19T00:30:24.030Z,7.83
2022-10-19T00:32:50.656Z,8.07
2022-10-19T00:35:17.333Z,7.67
2022-10-19T00:37:43.947Z,7.00
2022-10-19T00:40:10.971Z,7.87
2022-10-19T00:42:37.629Z,7.80
2022-10-19T00:45:12.536Z,8.03
2022-10-19T00:47:39.782Z,6.77
2022-10-19T00:50:06.946Z,7.07
2022-10-19T00:52:33.817Z,7.40
2022-10-19T00:55:01.327Z,8.10
2022-10-19T00:57:29.666Z,6.27
2022-10-19T00:59:57.505Z,6.60
2022-10-19T01:02:24.370Z,6.30
2022-10-19T01:04:52.302Z,7.85
2022-10-19T01:07:19.634Z,6.90
2022-10-19T01:09:46.448Z,7.23
2022-10-19T01:12:20.479Z,6.90
2022-10-19T01:15:13.353Z,6.97
2022-10-19T01:17:49.177Z,5.88
2022-10-19T01:20:21.592Z,6.07
2022-10-19T01:22:48.176Z,7.28
2022-10-19T01:25:39.200Z,6.00
2022-10-19T01:28:34.539Z,8.35
2022-10-19T01:31:28.321Z,6.40
2022-10-19T01:34:00.049Z,5.55
2022-10-19T01:36:38.487Z,6.10
2022-10-19T01:39:26.399Z,5.63
2022-10-19T01:42:30.745Z,6.00
2022-10-19T01:45:25.767Z,5.13
2022-10-19T01:47:58.443Z,5.30
2022-10-19T01:50:37.672Z,6.33
2022-10-19T01:53:07.949Z,5.60
2022-10-19T01:55:38.130Z,6.38
2022-10-19T01:58:10.159Z,7.07
2022-10-19T02:00:41.468Z,6.53
2022-10-19T02:03:10.124Z,7.10
2022-10-19T02:05:38.924Z,5.83
2022-10-19T02:08:13.456Z,7.15
2022-10-19T02:10:42.662Z,4.70
2022-10-19T02:13:10.016Z,7.00
2022-10-19T02:15:40.396Z,7.85
2022-10-19T02:18:08.359Z,6.20
2022-10-19T02:20:37.069Z,6.63
2022-10-19T02:23:06.990Z,5.90
2022-10-19T02:25:34.331Z,6.73
2022-10-19T02:28:02.668Z,6.30
2022-10-19T02:30:29.393Z,5.20
2022-10-19T02:32:56.160Z,6.03
2022-10-19T02:35:22.962Z,6.80
2022-10-19T02:37:49.782Z,5.38
2022-10-19T02:40:16.629Z,4.90
2022-10-19T02:42:48.617Z,5.43
2022-10-19T02:45:29.072Z,6.80
2022-10-19T02:48:01.120Z,7.13
2022-10-19T02:50:27.960Z,5.70
2022-10-19T02:52:54.572Z,6.37
2022-10-19T02:55:21.329Z,7.70
2022-10-19T02:57:47.989Z,5.17
2022-10-19T03:00:14.754Z,5.55
2022-10-19T03:02:42.501Z,5.47
2022-10-19T03:05:09.929Z,6.05
2022-10-19T03:07:37.011Z,6.50
2022-10-19T03:10:05.157Z,5.00
2022-10-19T03:12:31.790Z,6.30
2022-10-19T03:14:58.435Z,5.50
2022-10-19T03:17:25.017Z,5.43
2022-10-19T03:19:51.610Z,4.90
2022-10-19T03:22:18.204Z,4.90
2022-10-19T03:24:44.788Z,7.15
2022-10-19T03:27:11.385Z,5.70
2022-10-19T03:29:37.983Z,5.60
2022-10-19T03:32:05.740Z,6.80
2022-10-19T03:34:32.327Z,6.47
2022-10-19T03:36:59.108Z,7.43
2022-10-19T03:39:26.019Z,5.50
2022-10-19T03:41:52.623Z,5.33
2022-10-19T03:44:19.254Z,6.80
2022-10-19T03:46:45.839Z,6.17
2022-10-19T03:49:12.633Z,6.53
2022-10-19T03:51:39.265Z,6.63
2022-10-19T03:54:08.621Z,6.80
2022-10-19T03:56:36.278Z,5.68
2022-10-19T03:59:04.709Z,5.87
2022-10-19T04:01:41.288Z,5.28
2022-10-19T04:04:12.051Z,5.73
2022-10-19T04:06:41.601Z,7.00
2022-10-19T04:09:09.834Z,5.97
2022-10-19T04:11:37.423Z,5.20
2022-10-19T04:14:04.516Z,3.83
2022-10-19T04:16:31.824Z,5.80
2022-10-19T04:18:58.916Z,8.07
2022-10-19T04:21:33.767Z,5.93
2022-10-19T04:24:06.683Z,4.10
2022-10-19T04:26:34.527Z,5.97
2022-10-19T04:29:01.693Z,5.00
2022-10-19T04:31:28.908Z,3.70
2022-10-19T04:33:56.199Z,4.10
2022-10-19T04:36:23.436Z,5.75
2022-10-19T04:38:50.090Z,3.40
2022-10-19T04:41:20.565Z,3.60
2022-10-19T04:43:47.653Z,4.63
2022-10-19T04:46:17.450Z,3.27
2022-10-19T04:48:45.096Z,4.13
2022-10-19T04:51:12.287Z,3.30
2022-10-19T04:53:40.253Z,3.90
2022-10-19T04:56:14.101Z,4.70
2022-10-19T04:58:40.870Z,4.17
2022-10-19T05:01:11.645Z,4.43
2022-10-19T05:03:38.359Z,6.67
2022-10-19T05:06:05.514Z,3.60
2022-10-19T05:08:32.253Z,3.27
2022-10-19T05:11:11.316Z,6.10
2022-10-19T05:13:38.724Z,6.20
2022-10-19T05:16:07.253Z,6.05
2022-10-19T05:18:34.954Z,5.10
2022-10-19T05:21:13.272Z,5.27
2022-10-19T05:23:41.306Z,4.80
2022-10-19T05:26:12.800Z,5.40
2022-10-19T05:28:40.039Z,5.40
2022-10-19T05:31:15.229Z,6.47
2022-10-19T05:33:42.778Z,3.50
2022-10-19T05:36:16.834Z,4.37
2022-10-19T05:38:44.950Z,4.50
2022-10-19T05:41:18.282Z,5.20
2022-10-19T05:43:46.208Z,5.03
2022-10-19T05:46:17.395Z,4.25
2022-10-19T05:48:47.316Z,3.85
2022-10-19T05:51:16.959Z,5.43
2022-10-19T05:53:44.079Z,3.73
2022-10-19T05:56:16.733Z,4.88
2022-10-19T05:58:43.937Z,6.10
2022-10-19T06:01:11.525Z,6.57
2022-10-19T06:03:38.325Z,4.53
2022-10-19T06:06:06.914Z,4.27
2022-10-19T06:08:34.154Z,8.65
2022-10-19T06:11:10.172Z,4.37
2022-10-19T06:13:37.923Z,5.38
2022-10-19T06:16:05.926Z,4.10
2022-10-19T06:18:32.847Z,4.93
2022-10-19T06:21:08.282Z,6.40
2022-10-19T06:23:35.727Z,3.53
2022-10-19T06:26:04.283Z,4.27
2022-10-19T06:28:30.948Z,4.15
2022-10-19T06:30:58.695Z,3.83
2022-10-19T06:33:26.993Z,4.40
2022-10-19T06:35:54.000Z,4.53
2022-10-19T06:38:20.644Z,4.10
2022-10-19T06:40:49.015Z,4.33
2022-10-19T06:43:15.967Z,3.87
2022-10-19T06:45:42.562Z,3.35
2022-10-19T06:48:09.220Z,3.77
2022-10-19T06:50:35.899Z,3.70
2022-10-19T06:53:02.631Z,3.30
2022-10-19T06:55:29.327Z,3.03
2022-10-19T06:57:56.109Z,3.00
2022-10-19T07:00:22.714Z,4.20
2022-10-19T07:02:49.321Z,4.00
2022-10-19T07:05:16.006Z,4.00
2022-10-19T07:07:42.966Z,4.28
2022-10-19T07:10:09.741Z,4.70
2022-10-19T07:12:36.426Z,3.00
2022-10-19T07:15:03.321Z,2.53
2022-10-19T07:17:30.188Z,3.43
2022-10-19T07:19:57.194Z,7.95
2022-10-19T07:22:27.957Z,4.50
2022-10-19T07:24:54.982Z,5.97
2022-10-19T07:27:22.043Z,3.60
2022-10-19T07:29:48.635Z,4.00
2022-10-19T07:32:15.263Z,5.10
2022-10-19T07:34:41.862Z,3.97
2022-10-19T07:37:08.477Z,4.33
2022-10-19T07:39:35.045Z,5.00
2022-10-19T07:42:01.640Z,4.83
2022-10-19T07:44:29.347Z,3.97
2022-10-19T07:46:55.931Z,4.10
2022-10-19T07:49:22.625Z,4.80
2022-10-19T07:51:53.814Z,4.70
2022-10-19T07:54:21.316Z,4.97
2022-10-19T07:56:51.006Z,4.25
2022-10-19T07:59:17.759Z,4.10
2022-10-19T08:01:45.133Z,4.40
2022-10-19T08:06:58.691Z,3.23
2022-10-19T08:09:51.492Z,4.40
2022-10-19T08:12:15.101Z,4.40
2022-10-19T08:14:42.297Z,4.95
2022-10-19T08:17:11.882Z,3.73
2022-10-19T08:19:47.761Z,3.75
2022-10-19T08:22:14.382Z,4.50
2022-10-19T08:24:40.970Z,4.20
2022-10-19T08:27:07.683Z,4.40
2022-10-19T08:29:34.292Z,4.67
2022-10-19T08:32:00.897Z,3.93
2022-10-19T08:34:27.680Z,4.20
2022-10-19T08:36:56.348Z,4.10
2022-10-19T08:39:23.869Z,4.10
2022-10-19T08:42:03.804Z,4.43
2022-10-19T08:44:39.435Z,3.97
2022-10-19T08:47:32.218Z,3.97
2022-10-19T08:49:59.733Z,4.13
2022-10-19T08:52:34.264Z,3.60
2022-10-19T08:55:07.153Z,5.27
2022-10-19T08:57:55.780Z,6.00
2022-10-19T09:00:43.170Z,4.47
2022-10-19T09:03:56.093Z,4.70
2022-10-19T09:06:37.088Z,4.10
2022-10-19T09:09:05.532Z,4.40
2022-10-19T09:11:42.660Z,4.43
2022-10-19T09:14:18.197Z,4.70
2022-10-19T09:16:46.202Z,4.00
2022-10-19T09:19:21.897Z,4.77
2022-10-19T09:21:56.856Z,4.40
2022-10-19T09:24:29.891Z,5.63
2022-10-19T09:27:01.934Z,5.00
2022-10-19T09:29:38.860Z,4.97
2022-10-19T09:32:16.983Z,4.87
2022-10-19T09:34:52.164Z,4.60
2022-10-19T09:37:25.919Z,5.50
2022-10-19T09:39:55.126Z,5.90
2022-10-19T09:42:32.920Z,5.17
2022-10-19T09:45:02.822Z,5.40
2022-10-19T09:47:32.760Z,5.37
2022-10-19T09:50:20.493Z,5.00
2022-10-19T09:52:51.937Z,4.73
2022-10-19T09:55:29.316Z,6.07
2022-10-19T09:58:15.028Z,5.43
2022-10-19T10:00:56.255Z,5.80
2022-10-19T10:03:43.392Z,6.80
2022-10-19T10:06:16.232Z,5.23
2022-10-19T10:08:58.025Z,4.87
2022-10-19T10:11:34.638Z,5.10
2022-10-19T10:14:09.931Z,3.23
2022-10-19T10:16:36.827Z,4.23
2022-10-19T10:19:11.765Z,3.70
2022-10-19T10:21:54.542Z,3.20
2022-10-19T10:24:26.894Z,3.17
2022-10-19T10:26:54.921Z,2.73
2022-10-19T10:29:36.304Z,3.30
2022-10-19T10:32:16.282Z,2.83
2022-10-19T10:35:01.381Z,3.23
2022-10-19T10:37:37.300Z,3.17
2022-10-19T10:40:05.636Z,3.00
2022-10-19T10:42:41.229Z,2.90
2022-10-19T10:45:26.010Z,3.63
2022-10-19T10:47:53.465Z,3.00
2022-10-19T10:50:27.677Z,2.97
2022-10-19T10:53:06.307Z,3.13
2022-10-19T10:55:34.093Z,2.23
2022-10-19T10:58:06.804Z,2.70
2022-10-19T11:00:35.408Z,2.50
2022-10-19T11:03:10.924Z,2.77
2022-10-19T11:05:41.846Z,2.17
2022-10-19T11:08:24.816Z,2.30
2022-10-19T11:11:02.078Z,3.00
2022-10-19T11:13:43.829Z,1.90
2022-10-19T11:16:17.310Z,2.70
2022-10-19T11:18:50.080Z,2.20
2022-10-19T11:21:55.038Z,3.20
2022-10-19T11:25:10.506Z,2.60
2022-10-19T11:28:13.903Z,2.45
2022-10-19T11:31:20.259Z,2.70
2022-10-19T11:34:04.511Z,2.50
2022-10-19T11:36:46.166Z,3.10
2022-10-19T11:39:43.607Z,3.13
2022-10-19T11:42:23.683Z,3.87
2022-10-19T11:45:03.853Z,2.23
2022-10-19T11:47:36.856Z,3.07
2022-10-19T11:50:29.686Z,2.70
2022-10-19T11:53:22.826Z,4.50
2022-10-19T11:56:08.971Z,4.03
2022-10-19T11:58:57.073Z,3.00
2022-10-19T12:01:44.887Z,3.90
2022-10-19T12:04:34.303Z,3.75
2022-10-19T12:07:21.588Z,3.60
2022-10-19T12:09:56.957Z,4.77
2022-10-19T12:13:01.232Z,3.97
2022-10-19T12:15:38.029Z,4.50
2022-10-19T12:18:30.472Z,4.00
2022-10-19T12:21:01.847Z,4.03
2022-10-19T12:23:31.424Z,4.70
2022-10-19T12:26:04.771Z,3.80
2022-10-19T12:28:34.588Z,3.70
2022-10-19T12:31:02.921Z,4.40
2022-10-19T12:34:02.300Z,4.40
2022-10-19T12:36:50.130Z,3.92
2022-10-19T12:39:40.867Z,4.30
2022-10-19T12:42:16.925Z,4.10
2022-10-19T12:45:09.321Z,4.23
2022-10-19T12:47:36.283Z,3.50
2022-10-19T12:50:03.720Z,4.33
2022-10-19T12:52:42.384Z,4.27
2022-10-19T12:55:12.220Z,3.67
2022-10-19T12:57:40.209Z,4.03
2022-10-19T13:00:23.291Z,3.83
2022-10-19T13:03:25.069Z,3.97
2022-10-19T13:06:04.164Z,3.70
2022-10-19T13:08:39.155Z,3.83
2022-10-19T13:11:09.920Z,3.42
2022-10-19T13:14:14.053Z,3.47
2022-10-19T13:16:57.110Z,4.20
2022-10-19T13:19:23.923Z,3.20
2022-10-19T13:21:51.993Z,3.10
2022-10-19T13:24:24.292Z,3.88
2022-10-19T13:27:02.846Z,3.17
2022-10-19T13:29:38.697Z,3.30
2022-10-19T13:32:31.415Z,3.80
2022-10-19T13:35:30.263Z,3.20
2022-10-19T13:38:09.106Z,3.47
2022-10-19T13:40:56.759Z,3.30
2022-10-19T13:43:38.378Z,3.50
2022-10-19T13:46:14.587Z,3.83
2022-10-19T13:49:04.700Z,4.10
2022-10-19T13:52:09.180Z,5.27
2022-10-19T13:55:21.141Z,3.40
2022-10-19T13:58:27.197Z,3.50
2022-10-19T14:01:22.566Z,3.45
2022-10-19T14:03:52.339Z,3.47
2022-10-19T14:06:38.670Z,5.27
2022-10-19T14:09:28.428Z,3.63
2022-10-19T14:12:06.886Z,3.20
2022-10-19T14:17:28.484Z,3.40
2022-10-19T14:19:57.729Z,3.60
2022-10-19T14:22:42.167Z,3.07
2022-10-19T14:25:27.395Z,3.70
2022-10-19T14:28:17.272Z,3.22
2022-10-19T14:30:44.446Z,3.50
2022-10-19T14:33:14.749Z,3.67
2022-10-19T14:35:45.406Z,3.63
2022-10-19T14:38:21.596Z,3.27
2022-10-19T14:40:48.287Z,3.57
2022-10-19T14:43:26.984Z,3.60
2022-10-19T14:46:13.332Z,3.30
2022-10-19T14:48:46.187Z,3.83
2022-10-19T14:51:24.688Z,2.70
2022-10-19T14:53:57.826Z,3.83
2022-10-19T14:56:37.448Z,3.67
2022-10-19T14:59:20.200Z,3.73
2022-10-19T15:01:56.717Z,4.13
2022-10-19T15:04:28.108Z,3.72
2022-10-19T15:06:55.773Z,4.33
2022-10-19T15:09:37.802Z,3.90
2022-10-19T15:12:21.354Z,3.90
2022-10-19T15:14:48.554Z,3.43
2022-10-19T15:17:27.168Z,3.37
2022-10-19T15:19:55.997Z,3.73
2022-10-19T15:22:32.196Z,7.83
2022-10-19T15:25:08.078Z,4.17
2022-10-19T15:27:42.210Z,4.43
2022-10-19T15:30:17.602Z,3.40
2022-10-19T15:32:52.830Z,10.87
2022-10-19T15:35:30.250Z,3.40
2022-10-19T15:38:23.094Z,3.17
2022-10-19T15:40:57.008Z,3.97
2022-10-19T15:43:34.431Z,4.63
2022-10-19T15:46:06.763Z,4.23
2022-10-19T15:48:44.277Z,4.80
2022-10-19T15:51:26.200Z,3.23
2022-10-19T15:53:58.234Z,3.47
2022-10-19T15:56:27.536Z,3.50
2022-10-19T15:58:56.665Z,4.37
2022-10-19T16:01:26.174Z,6.00
2022-10-19T16:03:53.776Z,4.30
2022-10-19T16:06:22.354Z,4.17
2022-10-19T16:08:51.080Z,4.53
2022-10-19T16:11:19.494Z,4.10
2022-10-19T16:13:46.137Z,3.20
2022-10-19T16:16:21.036Z,3.90
2022-10-19T16:18:48.061Z,4.30
2022-10-19T16:21:15.502Z,5.80
2022-10-19T16:23:42.384Z,4.57
2022-10-19T16:26:09.291Z,4.65
2022-10-19T16:28:36.186Z,5.77
2022-10-19T16:31:02.888Z,5.60
2022-10-19T16:33:29.469Z,6.90
2022-10-19T16:35:56.045Z,8.47
2022-10-19T16:38:22.688Z,8.60
2022-10-19T16:40:49.279Z,7.77
2022-10-19T16:43:15.953Z,5.93
2022-10-19T16:45:43.537Z,4.87
2022-10-19T16:48:13.275Z,4.20
2022-10-19T16:50:39.950Z,3.80
2022-10-19T16:53:11.064Z,3.57
2022-10-19T16:55:39.753Z,4.18
2022-10-19T16:58:07.098Z,3.53
2022-10-19T17:00:35.269Z,4.77
2022-10-19T17:03:01.982Z,4.97
2022-10-19T17:05:28.727Z,3.90
2022-10-19T17:07:55.317Z,4.87
2022-10-19T17:10:22.017Z,4.33
2022-10-19T17:12:48.617Z,4.20
2022-10-19T17:15:41.345Z,3.90
2022-10-19T17:18:01.884Z,4.30
2022-10-19T17:20:28.501Z,4.50
2022-10-19T17:22:55.115Z,5.23
2022-10-19T17:25:21.704Z,4.10
2022-10-19T17:27:52.437Z,4.10
2022-10-19T17:30:19.605Z,3.70
2022-10-19T17:32:46.305Z,3.67
2022-10-19T17:35:12.935Z,4.60
2022-10-19T17:37:39.585Z,4.83
2022-10-19T17:40:06.910Z,4.27
2022-10-19T17:42:36.460Z,5.07
2022-10-19T17:45:03.224Z,4.90
2022-10-19T17:47:30.494Z,5.10
2022-10-19T17:49:57.066Z,4.53
2022-10-19T17:52:23.739Z,5.33
2022-10-19T17:55:11.168Z,5.30
2022-10-19T17:57:37.243Z,5.00
2022-10-19T18:00:05.871Z,4.97
2022-10-19T18:02:35.364Z,5.30
2022-10-19T18:05:02.423Z,4.53
2022-10-19T18:07:29.204Z,4.25
2022-10-19T18:09:55.994Z,4.80
2022-10-19T18:12:22.725Z,4.75
2022-10-19T18:14:49.328Z,4.07
2022-10-19T18:17:15.935Z,4.03
2022-10-19T18:19:42.567Z,4.70
2022-10-19T18:22:09.138Z,4.70
2022-10-19T18:24:35.786Z,7.43
2022-10-19T18:27:02.372Z,5.00
2022-10-19T18:29:29.079Z,4.70
2022-10-19T18:31:55.787Z,5.87
2022-10-19T18:34:24.824Z,5.87
2022-10-19T18:36:52.099Z,5.67
2022-10-19T18:39:19.319Z,7.47
2022-10-19T18:41:45.953Z,6.07
2022-10-19T18:44:14.957Z,6.03
2022-10-19T18:46:41.739Z,5.30
2022-10-19T18:49:08.954Z,5.93
2022-10-19T18:51:36.151Z,5.43
2022-10-19T18:54:02.941Z,5.28
2022-10-19T18:56:29.602Z,4.82
2022-10-19T18:58:56.782Z,5.07
2022-10-19T19:01:28.614Z,6.20
2022-10-19T19:03:57.070Z,5.70
2022-10-19T19:06:29.385Z,4.82
2022-10-19T19:08:57.876Z,6.13
2022-10-19T19:11:31.771Z,6.40
2022-10-19T19:14:06.041Z,5.82
2022-10-19T19:16:35.612Z,4.85
2022-10-19T19:19:02.825Z,5.70
2022-10-19T19:21:30.934Z,5.90
2022-10-19T19:24:00.200Z,6.10
2022-10-19T19:26:30.493Z,6.20
2022-10-19T19:28:57.652Z,5.90
2022-10-19T19:31:24.827Z,6.20
2022-10-19T19:33:51.714Z,6.27
2022-10-19T19:36:19.959Z,6.17
2022-10-19T19:38:48.845Z,7.22
2022-10-19T19:41:16.373Z,7.70
2022-10-19T19:43:43.675Z,7.53
2022-10-19T19:46:16.642Z,7.50
2022-10-19T19:48:45.982Z,7.53
2022-10-19T19:51:15.664Z,8.13
2022-10-19T19:53:42.448Z,9.77
2022-10-19T19:56:11.075Z,10.33
2022-10-19T19:58:38.125Z,9.80
2022-10-19T20:01:13.609Z,9.98
2022-10-19T20:03:41.293Z,9.63
2022-10-19T20:06:08.108Z,10.50
2022-10-19T20:08:36.710Z,10.88
2022-10-19T20:11:05.903Z,9.95
2022-10-19T20:13:33.093Z,8.82
2022-10-19T20:16:06.257Z,8.60
2022-10-19T20:18:32.878Z,9.30
2022-10-19T20:21:03.252Z,7.70
2022-10-19T20:23:30.738Z,7.70
2022-10-19T20:25:57.334Z,6.68
2022-10-19T20:28:25.300Z,7.10
2022-10-19T20:31:02.541Z,7.72
2022-10-19T20:33:31.019Z,8.70
2022-10-19T20:36:01.852Z,7.90
2022-10-19T20:38:28.533Z,7.78
2022-10-19T20:40:55.282Z,7.60
2022-10-19T20:43:22.008Z,9.00
2022-10-19T20:45:48.623Z,8.57
2022-10-19T20:48:15.314Z,10.17
2022-10-19T20:50:42.041Z,8.87
2022-10-19T20:53:11.102Z,9.20
2022-10-19T20:55:37.715Z,8.55
2022-10-19T20:58:04.323Z,8.93
2022-10-19T21:00:30.987Z,8.80
2022-10-19T21:02:59.260Z,10.70
2022-10-19T21:05:25.874Z,11.90
2022-10-19T21:07:53.123Z,11.20
2022-10-19T21:10:19.811Z,10.47
2022-10-19T21:12:46.413Z,10.90
2022-10-19T21:15:13.046Z,11.37
2022-10-19T21:17:39.703Z,11.37
2022-10-19T21:20:06.812Z,9.77
2022-10-19T21:22:39.071Z,7.90
2022-10-19T21:25:06.192Z,8.07
2022-10-19T21:27:33.096Z,9.20
2022-10-19T21:29:59.925Z,8.50
2022-10-19T21:32:26.493Z,8.30
2022-10-19T21:34:53.136Z,9.47
2022-10-19T21:37:19.703Z,9.45
2022-10-19T21:39:46.284Z,11.30
2022-10-19T21:42:12.965Z,10.67
2022-10-19T21:44:39.644Z,11.40
2022-10-19T21:47:07.835Z,12.30
2022-10-19T21:49:34.418Z,10.30
2022-10-19T21:52:01.034Z,10.30
2022-10-19T21:54:29.095Z,10.17
2022-10-19T21:56:57.615Z,9.93
2022-10-19T21:59:24.745Z,11.00
2022-10-19T22:01:54.509Z,10.07
2022-10-19T22:04:21.383Z,9.57
2022-10-19T22:06:47.994Z,9.95
2022-10-19T22:09:18.170Z,10.27
2022-10-19T22:11:45.118Z,9.43
2022-10-19T22:14:13.713Z,9.80
2022-10-19T22:16:41.264Z,8.70
2022-10-19T22:19:08.656Z,9.83
2022-10-19T22:21:35.576Z,9.13
2022-10-19T22:24:09.022Z,10.17
2022-10-19T22:26:38.646Z,10.60
2022-10-19T22:29:07.313Z,9.30
2022-10-19T22:31:35.819Z,8.47
2022-10-19T22:34:08.288Z,9.33
2022-10-19T22:36:34.968Z,8.27
2022-10-19T22:39:01.625Z,8.17
2022-10-19T22:41:28.202Z,8.20
2022-10-19T22:43:54.838Z,7.13
2022-10-19T22:46:21.450Z,8.70
2022-10-19T22:48:48.009Z,8.53
2022-10-19T22:51:14.687Z,9.35
2022-10-19T22:53:41.429Z,8.73
2022-10-19T22:56:10.754Z,7.90
2022-10-19T22:58:37.562Z,8.45
2022-10-19T23:01:10.189Z,8.93
2022-10-19T23:03:39.271Z,9.33
2022-10-19T23:06:08.008Z,9.00
2022-10-19T23:08:35.039Z,8.27
2022-10-19T23:11:01.680Z,8.70
2022-10-19T23:13:28.576Z,9.57
2022-10-19T23:15:55.185Z,8.60
2022-10-19T23:18:21.806Z,9.53
2022-10-19T23:20:56.649Z,8.40
2022-10-19T23:23:23.839Z,7.80
2022-10-19T23:26:06.551Z,7.60
2022-10-19T23:28:35.971Z,7.30
2022-10-19T23:31:08.992Z,7.30
2022-10-19T23:33:35.926Z,8.50
2022-10-19T23:36:07.134Z,7.10
2022-10-19T23:38:34.230Z,6.47
2022-10-19T23:41:01.068Z,7.83
2022-10-19T23:43:28.021Z,9.17
2022-10-19T23:45:55.016Z,7.32
2022-10-19T23:48:21.713Z,6.50
2022-10-19T23:51:00.122Z,8.60
2022-10-19T23:53:28.136Z,7.80
2022-10-19T23:55:59.516Z,6.70
2022-10-19T23:58:26.546Z,7.47
